sensor_id;sensor_type;location;lat;lon;timestamp;pressure;altitude;pressure_sealevel;temperature;humidity
51986;BME280;38002;53.296;6.600;2023-02-03T00:01:04;102272.50;;;8.16;91.78
51986;BME280;38002;53.296;6.600;2023-02-03T00:06:05;102277.81;;;8.18;91.83
51986;BME280;38002;53.296;6.600;2023-02-03T00:11:05;102274.25;;;8.17;91.91
51986;BME280;38002;53.296;6.600;2023-02-03T00:16:06;102266.00;;;8.19;91.32
51986;BME280;38002;53.296;6.600;2023-02-03T00:21:07;102267.72;;;8.20;91.31
51986;BME280;38002;53.296;6.600;2023-02-03T00:26:12;102260.59;;;8.19;91.64
51986;BME280;38002;53.296;6.600;2023-02-03T00:31:17;102261.22;;;8.23;90.81
51986;BME280;38002;53.296;6.600;2023-02-03T00:36:18;102264.81;;;8.23;90.73
51986;BME280;38002;53.296;6.600;2023-02-03T00:41:19;102244.97;;;8.23;90.54
51986;BME280;38002;53.296;6.600;2023-02-03T00:46:20;102228.72;;;8.23;90.30
51986;BME280;38002;53.296;6.600;2023-02-03T00:51:21;102223.16;;;8.24;90.51
51986;BME280;38002;53.296;6.600;2023-02-03T00:56:21;102220.34;;;8.26;89.77
51986;BME280;38002;53.296;6.600;2023-02-03T01:01:22;102204.09;;;8.26;90.21
51986;BME280;38002;53.296;6.600;2023-02-03T01:06:23;102199.63;;;8.25;89.61
51986;BME280;38002;53.296;6.600;2023-02-03T01:11:25;102225.88;;;8.24;89.98
51986;BME280;38002;53.296;6.600;2023-02-03T01:16:27;102199.88;;;8.21;89.89
51986;BME280;38002;53.296;6.600;2023-02-03T01:21:29;102180.19;;;8.19;90.65
51986;BME280;38002;53.296;6.600;2023-02-03T01:26:30;102202.81;;;8.18;90.12
51986;BME280;38002;53.296;6.600;2023-02-03T01:31:33;102214.53;;;8.19;90.37
51986;BME280;38002;53.296;6.600;2023-02-03T01:36:36;102208.34;;;8.17;89.56
51986;BME280;38002;53.296;6.600;2023-02-03T01:41:37;102199.34;;;8.16;90.04
51986;BME280;38002;53.296;6.600;2023-02-03T01:46:45;102204.75;;;8.16;89.69
51986;BME280;38002;53.296;6.600;2023-02-03T01:51:48;102160.44;;;8.17;89.59
51986;BME280;38002;53.296;6.600;2023-02-03T01:56:53;102166.72;;;8.18;89.68
51986;BME280;38002;53.296;6.600;2023-02-03T02:01:55;102185.81;;;8.16;89.68
51986;BME280;38002;53.296;6.600;2023-02-03T02:06:57;102193.94;;;8.16;90.11
51986;BME280;38002;53.296;6.600;2023-02-03T02:11:58;102180.28;;;8.18;90.18
51986;BME280;38002;53.296;6.600;2023-02-03T02:33:06;102188.84;;;8.12;89.41
51986;BME280;38002;53.296;6.600;2023-02-03T02:43:20;102170.13;;;8.09;90.04
51986;BME280;38002;53.296;6.600;2023-02-03T02:48:31;102154.84;;;8.08;88.91
51986;BME280;38002;53.296;6.600;2023-02-03T02:53:39;102143.03;;;8.09;89.82
51986;BME280;38002;53.296;6.600;2023-02-03T02:58:43;102143.13;;;8.07;89.69
51986;BME280;38002;53.296;6.600;2023-02-03T03:03:46;102134.03;;;8.08;89.39
51986;BME280;38002;53.296;6.600;2023-02-03T03:09:08;102127.66;;;8.09;89.32
51986;BME280;38002;53.296;6.600;2023-02-03T03:14:09;102113.47;;;8.06;89.36
51986;BME280;38002;53.296;6.600;2023-02-03T03:19:24;102107.28;;;8.04;88.98
51986;BME280;38002;53.296;6.600;2023-02-03T03:24:30;102093.88;;;8.02;89.39
51986;BME280;38002;53.296;6.600;2023-02-03T03:29:36;102114.44;;;8.05;89.33
51986;BME280;38002;53.296;6.600;2023-02-03T03:34:38;102112.47;;;8.07;89.36
51986;BME280;38002;53.296;6.600;2023-02-03T03:39:49;102111.50;;;8.08;89.22
51986;BME280;38002;53.296;6.600;2023-02-03T03:45:01;102120.38;;;8.10;89.19
51986;BME280;38002;53.296;6.600;2023-02-03T03:50:06;102130.34;;;8.09;89.48
51986;BME280;38002;53.296;6.600;2023-02-03T03:55:10;102123.19;;;8.08;89.83
51986;BME280;38002;53.296;6.600;2023-02-03T04:00:16;102120.38;;;8.10;89.35
51986;BME280;38002;53.296;6.600;2023-02-03T04:05:20;102122.97;;;8.11;89.62
51986;BME280;38002;53.296;6.600;2023-02-03T04:10:30;102111.03;;;8.14;88.98
51986;BME280;38002;53.296;6.600;2023-02-03T04:15:32;102115.50;;;8.15;89.19
51986;BME280;38002;53.296;6.600;2023-02-03T04:20:33;102119.69;;;8.19;89.01
51986;BME280;38002;53.296;6.600;2023-02-03T04:25:33;102112.94;;;8.25;89.01
51986;BME280;38002;53.296;6.600;2023-02-03T04:30:34;102104.47;;;8.29;88.85
51986;BME280;38002;53.296;6.600;2023-02-03T04:35:34;102105.09;;;8.33;88.70
51986;BME280;38002;53.296;6.600;2023-02-03T04:40:35;102114.00;;;8.35;88.93
51986;BME280;38002;53.296;6.600;2023-02-03T04:45:35;102110.19;;;8.37;88.87
51986;BME280;38002;53.296;6.600;2023-02-03T04:50:36;102116.47;;;8.38;88.75
51986;BME280;38002;53.296;6.600;2023-02-03T04:55:36;102106.50;;;8.38;89.11
51986;BME280;38002;53.296;6.600;2023-02-03T05:00:37;102122.03;;;8.36;88.63
51986;BME280;38002;53.296;6.600;2023-02-03T05:05:37;102110.31;;;8.36;89.29
51986;BME280;38002;53.296;6.600;2023-02-03T05:10:38;102109.19;;;8.38;88.45
51986;BME280;38002;53.296;6.600;2023-02-03T05:15:38;102094.78;;;8.38;88.84
51986;BME280;38002;53.296;6.600;2023-02-03T05:20:39;102096.63;;;8.37;89.35
51986;BME280;38002;53.296;6.600;2023-02-03T05:25:39;102100.19;;;8.38;88.72
51986;BME280;38002;53.296;6.600;2023-02-03T05:30:39;102100.97;;;8.40;88.74
51986;BME280;38002;53.296;6.600;2023-02-03T05:35:40;102109.72;;;8.43;89.42
51986;BME280;38002;53.296;6.600;2023-02-03T05:40:40;102082.50;;;8.45;88.74
51986;BME280;38002;53.296;6.600;2023-02-03T05:46:00;102064.50;;;8.44;89.14
51986;BME280;38002;53.296;6.600;2023-02-03T05:51:01;102094.84;;;8.49;88.96
51986;BME280;38002;53.296;6.600;2023-02-03T05:56:01;102084.88;;;8.49;88.90
51986;BME280;38002;53.296;6.600;2023-02-03T06:01:02;102084.00;;;8.49;88.63
51986;BME280;38002;53.296;6.600;2023-02-03T06:06:02;102086.91;;;8.46;88.47
51986;BME280;38002;53.296;6.600;2023-02-03T06:11:03;102091.50;;;8.45;88.73
51986;BME280;38002;53.296;6.600;2023-02-03T06:16:04;102087.78;;;8.46;89.06
51986;BME280;38002;53.296;6.600;2023-02-03T06:21:05;102076.94;;;8.46;89.03
51986;BME280;38002;53.296;6.600;2023-02-03T06:26:05;102077.94;;;8.45;88.54
51986;BME280;38002;53.296;6.600;2023-02-03T06:31:06;102086.19;;;8.44;88.61
51986;BME280;38002;53.296;6.600;2023-02-03T06:36:06;102096.16;;;8.43;88.68
51986;BME280;38002;53.296;6.600;2023-02-03T06:41:07;102100.00;;;8.41;89.65
51986;BME280;38002;53.296;6.600;2023-02-03T06:46:07;102093.56;;;8.42;88.75
51986;BME280;38002;53.296;6.600;2023-02-03T06:51:08;102105.50;;;8.39;89.17
51986;BME280;38002;53.296;6.600;2023-02-03T06:56:08;102117.47;;;8.37;89.62
51986;BME280;38002;53.296;6.600;2023-02-03T07:01:09;102133.72;;;8.37;89.00
51986;BME280;38002;53.296;6.600;2023-02-03T07:06:09;102139.34;;;8.34;90.23
51986;BME280;38002;53.296;6.600;2023-02-03T07:11:10;102142.06;;;8.34;89.75
51986;BME280;38002;53.296;6.600;2023-02-03T07:16:10;102141.00;;;8.36;89.18
51986;BME280;38002;53.296;6.600;2023-02-03T07:21:11;102154.31;;;8.39;89.33
51986;BME280;38002;53.296;6.600;2023-02-03T07:26:12;102159.63;;;8.41;89.44
51986;BME280;38002;53.296;6.600;2023-02-03T07:31:12;102171.34;;;8.41;90.37
51986;BME280;38002;53.296;6.600;2023-02-03T07:36:13;102165.78;;;8.43;90.36
51986;BME280;38002;53.296;6.600;2023-02-03T07:41:13;102181.31;;;8.41;89.96
51986;BME280;38002;53.296;6.600;2023-02-03T07:46:14;102173.63;;;8.35;90.00
51986;BME280;38002;53.296;6.600;2023-02-03T07:51:15;102181.13;;;8.31;90.42
51986;BME280;38002;53.296;6.600;2023-02-03T07:56:16;102191.31;;;8.28;91.00
51986;BME280;38002;53.296;6.600;2023-02-03T08:01:16;102178.81;;;8.25;90.62
51986;BME280;38002;53.296;6.600;2023-02-03T08:06:16;102185.34;;;8.23;90.67
51986;BME280;38002;53.296;6.600;2023-02-03T08:11:17;102193.47;;;8.23;90.60
51986;BME280;38002;53.296;6.600;2023-02-03T08:16:18;102212.31;;;8.24;91.18
51986;BME280;38002;53.296;6.600;2023-02-03T08:21:18;102214.06;;;8.25;90.72
51986;BME280;38002;53.296;6.600;2023-02-03T08:26:19;102218.41;;;8.28;90.98
51986;BME280;38002;53.296;6.600;2023-02-03T08:31:19;102218.19;;;8.31;91.19
51986;BME280;38002;53.296;6.600;2023-02-03T08:36:20;102233.25;;;8.35;91.61
51986;BME280;38002;53.296;6.600;2023-02-03T08:41:20;102239.19;;;8.40;91.85
51986;BME280;38002;53.296;6.600;2023-02-03T08:46:21;102247.31;;;8.40;91.35
51986;BME280;38002;53.296;6.600;2023-02-03T08:51:21;102242.28;;;8.46;91.62
51986;BME280;38002;53.296;6.600;2023-02-03T08:56:22;102253.56;;;8.53;91.62
51986;BME280;38002;53.296;6.600;2023-02-03T09:01:24;102257.53;;;8.60;91.42
51986;BME280;38002;53.296;6.600;2023-02-03T09:06:25;102271.72;;;8.63;91.02
51986;BME280;38002;53.296;6.600;2023-02-03T09:11:25;102271.38;;;8.68;90.79
51986;BME280;38002;53.296;6.600;2023-02-03T09:16:28;102298.28;;;8.71;91.01
51986;BME280;38002;53.296;6.600;2023-02-03T09:21:30;102278.28;;;8.72;89.88
51986;BME280;38002;53.296;6.600;2023-02-03T09:26:30;102287.09;;;8.76;90.47
51986;BME280;38002;53.296;6.600;2023-02-03T09:31:31;102306.72;;;8.79;90.87
51986;BME280;38002;53.296;6.600;2023-02-03T09:36:31;102330.88;;;8.82;91.08
51986;BME280;38002;53.296;6.600;2023-02-03T09:47:09;102340.28;;;8.89;90.23
51986;BME280;38002;53.296;6.600;2023-02-03T09:57:21;102364.25;;;8.95;89.90
51986;BME280;38002;53.296;6.600;2023-02-03T10:13:29;102377.13;;;9.04;89.01
51986;BME280;38002;53.296;6.600;2023-02-03T10:18:50;102384.78;;;9.10;88.40
51986;BME280;38002;53.296;6.600;2023-02-03T10:23:53;102390.53;;;9.19;89.43
51986;BME280;38002;53.296;6.600;2023-02-03T10:29:02;102424.00;;;9.30;88.39
51986;BME280;38002;53.296;6.600;2023-02-03T10:34:14;102418.97;;;9.37;88.39
51986;BME280;38002;53.296;6.600;2023-02-03T10:39:40;102422.97;;;9.44;87.93
51986;BME280;38002;53.296;6.600;2023-02-03T10:44:49;102420.41;;;9.53;88.26
51986;BME280;38002;53.296;6.600;2023-02-03T10:49:55;102426.34;;;9.58;86.99
51986;BME280;38002;53.296;6.600;2023-02-03T10:54:56;102433.63;;;9.58;87.84
51986;BME280;38002;53.296;6.600;2023-02-03T11:00:03;102441.66;;;9.60;85.64
51986;BME280;38002;53.296;6.600;2023-02-03T11:05:22;102440.56;;;9.62;86.53
51986;BME280;38002;53.296;6.600;2023-02-03T11:10:32;102455.06;;;9.74;87.03
51986;BME280;38002;53.296;6.600;2023-02-03T11:15:34;102456.22;;;9.82;86.46
51986;BME280;38002;53.296;6.600;2023-02-03T11:20:35;102444.75;;;9.90;86.58
51986;BME280;38002;53.296;6.600;2023-02-03T11:25:36;102458.22;;;10.02;86.23
51986;BME280;38002;53.296;6.600;2023-02-03T11:30:37;102446.22;;;10.18;85.40
51986;BME280;38002;53.296;6.600;2023-02-03T11:35:38;102461.66;;;10.28;84.69
51986;BME280;38002;53.296;6.600;2023-02-03T11:40:39;102468.84;;;10.40;84.49
51986;BME280;38002;53.296;6.600;2023-02-03T11:45:49;102472.94;;;10.57;82.33
51986;BME280;38002;53.296;6.600;2023-02-03T11:57:01;102488.28;;;11.03;78.23
51986;BME280;38002;53.296;6.600;2023-02-03T12:08:01;102492.63;;;10.94;79.82
51986;BME280;38002;53.296;6.600;2023-02-03T12:29:09;102526.66;;;9.96;81.09
51986;BME280;38002;53.296;6.600;2023-02-03T12:34:32;102517.81;;;9.82;79.55
51986;BME280;38002;53.296;6.600;2023-02-03T12:39:37;102518.88;;;9.68;80.74
51986;BME280;38002;53.296;6.600;2023-02-03T12:44:45;102521.25;;;9.49;79.80
51986;BME280;38002;53.296;6.600;2023-02-03T12:49:49;102543.66;;;9.40;81.11
51986;BME280;38002;53.296;6.600;2023-02-03T12:54:58;102535.94;;;9.34;80.90
51986;BME280;38002;53.296;6.600;2023-02-03T13:00:16;102537.09;;;9.19;79.45
51986;BME280;38002;53.296;6.600;2023-02-03T13:06:23;102544.38;;;9.05;80.40
51986;BME280;38002;53.296;6.600;2023-02-03T13:11:06;102555.66;;;8.99;81.09
51986;BME280;38002;53.296;6.600;2023-02-03T13:16:10;102566.09;;;9.05;80.88
51986;BME280;38002;53.296;6.600;2023-02-03T13:21:12;102568.13;;;9.02;80.57
51986;BME280;38002;53.296;6.600;2023-02-03T13:26:38;102566.63;;;8.98;80.70
51986;BME280;38002;53.296;6.600;2023-02-03T13:42:24;102583.22;;;8.81;81.69
51986;BME280;38002;53.296;6.600;2023-02-03T13:47:29;102591.59;;;8.78;81.42
51986;BME280;38002;53.296;6.600;2023-02-03T13:52:37;102593.00;;;8.71;81.05
51986;BME280;38002;53.296;6.600;2023-02-03T14:02:44;102603.22;;;8.67;81.19
51986;BME280;38002;53.296;6.600;2023-02-03T14:07:44;102606.44;;;8.59;81.03
51986;BME280;38002;53.296;6.600;2023-02-03T14:23:19;102646.75;;;8.51;78.63
51986;BME280;38002;53.296;6.600;2023-02-03T14:33:53;102638.19;;;8.45;81.12
51986;BME280;38002;53.296;6.600;2023-02-03T14:38:55;102649.44;;;8.39;79.94
51986;BME280;38002;53.296;6.600;2023-02-03T15:10:40;102685.66;;;8.11;79.86
51986;BME280;38002;53.296;6.600;2023-02-03T15:15:39;102669.78;;;8.05;80.99
51986;BME280;38002;53.296;6.600;2023-02-03T15:20:40;102669.13;;;8.01;80.64
51986;BME280;38002;53.296;6.600;2023-02-03T15:25:45;102670.28;;;7.97;80.11
51986;BME280;38002;53.296;6.600;2023-02-03T15:30:48;102681.31;;;7.94;80.36
51986;BME280;38002;53.296;6.600;2023-02-03T15:35:57;102667.31;;;7.88;80.82
51986;BME280;38002;53.296;6.600;2023-02-03T15:40:59;102660.38;;;7.84;80.84
51986;BME280;38002;53.296;6.600;2023-02-03T15:46:17;102676.69;;;7.82;78.70
51986;BME280;38002;53.296;6.600;2023-02-03T15:51:56;102684.81;;;7.82;79.29
51986;BME280;38002;53.296;6.600;2023-02-03T15:57:03;102687.66;;;7.81;80.22
51986;BME280;38002;53.296;6.600;2023-02-03T16:07:55;102709.91;;;7.71;80.73
51986;BME280;38002;53.296;6.600;2023-02-03T16:13:24;102728.38;;;7.65;81.30
51986;BME280;38002;53.296;6.600;2023-02-03T16:18:25;102733.19;;;7.60;80.68
51986;BME280;38002;53.296;6.600;2023-02-03T16:23:26;102743.56;;;7.53;81.43
51986;BME280;38002;53.296;6.600;2023-02-03T16:28:29;102761.25;;;7.45;81.07
51986;BME280;38002;53.296;6.600;2023-02-03T16:33:49;102764.31;;;7.39;81.89
51986;BME280;38002;53.296;6.600;2023-02-03T16:39:10;102759.19;;;7.34;82.23
51986;BME280;38002;53.296;6.600;2023-02-03T16:44:29;102786.66;;;7.28;82.39
51986;BME280;38002;53.296;6.600;2023-02-03T16:49:48;102788.47;;;7.27;81.83
51986;BME280;38002;53.296;6.600;2023-02-03T16:55:08;102798.34;;;7.28;82.36
51986;BME280;38002;53.296;6.600;2023-02-03T17:00:09;102803.66;;;7.30;82.24
51986;BME280;38002;53.296;6.600;2023-02-03T17:05:11;102818.72;;;7.34;81.69
51986;BME280;38002;53.296;6.600;2023-02-03T17:10:12;102813.03;;;7.39;82.21
51986;BME280;38002;53.296;6.600;2023-02-03T17:15:12;102835.28;;;7.44;82.01
51986;BME280;38002;53.296;6.600;2023-02-03T17:20:13;102835.09;;;7.47;82.03
51986;BME280;38002;53.296;6.600;2023-02-03T17:25:14;102840.34;;;7.50;81.79
51986;BME280;38002;53.296;6.600;2023-02-03T17:30:14;102847.59;;;7.49;81.93
51986;BME280;38002;53.296;6.600;2023-02-03T17:35:15;102850.19;;;7.51;81.23
51986;BME280;38002;53.296;6.600;2023-02-03T17:40:15;102864.78;;;7.48;81.97
51986;BME280;38002;53.296;6.600;2023-02-03T17:45:16;102867.56;;;7.47;81.66
51986;BME280;38002;53.296;6.600;2023-02-03T17:50:16;102873.19;;;7.44;81.74
51986;BME280;38002;53.296;6.600;2023-02-03T17:55:18;102878.66;;;7.42;81.37
51986;BME280;38002;53.296;6.600;2023-02-03T18:00:18;102898.69;;;7.40;82.11
51986;BME280;38002;53.296;6.600;2023-02-03T18:05:19;102915.13;;;7.37;81.14
51986;BME280;38002;53.296;6.600;2023-02-03T18:10:20;102919.72;;;7.35;81.61
51986;BME280;38002;53.296;6.600;2023-02-03T18:15:20;102925.16;;;7.35;81.22
51986;BME280;38002;53.296;6.600;2023-02-03T18:20:20;102936.16;;;7.32;82.38
51986;BME280;38002;53.296;6.600;2023-02-03T18:25:21;102926.47;;;7.27;82.11
51986;BME280;38002;53.296;6.600;2023-02-03T18:30:21;102941.03;;;7.25;82.27
51986;BME280;38002;53.296;6.600;2023-02-03T18:35:22;102941.50;;;7.17;82.46
51986;BME280;38002;53.296;6.600;2023-02-03T18:40:23;102947.03;;;7.16;81.95
51986;BME280;38002;53.296;6.600;2023-02-03T18:45:23;102950.06;;;7.10;82.14
51986;BME280;38002;53.296;6.600;2023-02-03T18:50:24;102950.16;;;7.08;82.09
51986;BME280;38002;53.296;6.600;2023-02-03T18:55:24;102962.09;;;7.04;82.73
51986;BME280;38002;53.296;6.600;2023-02-03T19:00:25;102960.53;;;7.00;82.90
51986;BME280;38002;53.296;6.600;2023-02-03T19:05:26;102984.13;;;6.98;82.68
51986;BME280;38002;53.296;6.600;2023-02-03T19:10:26;102990.53;;;6.96;83.11
51986;BME280;38002;53.296;6.600;2023-02-03T19:15:27;102986.19;;;6.93;83.19
51986;BME280;38002;53.296;6.600;2023-02-03T19:20:27;103006.09;;;6.92;83.91
51986;BME280;38002;53.296;6.600;2023-02-03T19:25:28;103030.41;;;6.92;82.61
51986;BME280;38002;53.296;6.600;2023-02-03T19:30:30;103041.41;;;6.89;83.67
51986;BME280;38002;53.296;6.600;2023-02-03T19:35:30;103033.44;;;6.86;84.59
51986;BME280;38002;53.296;6.600;2023-02-03T19:40:33;103052.50;;;6.84;84.37
51986;BME280;38002;53.296;6.600;2023-02-03T19:45:33;103055.25;;;6.83;83.85
51986;BME280;38002;53.296;6.600;2023-02-03T19:50:35;103056.22;;;6.82;84.23
51986;BME280;38002;53.296;6.600;2023-02-03T19:55:36;103069.72;;;6.82;84.28
51986;BME280;38002;53.296;6.600;2023-02-03T20:00:37;103068.16;;;6.78;84.82
51986;BME280;38002;53.296;6.600;2023-02-03T20:05:37;103084.38;;;6.78;85.01
51986;BME280;38002;53.296;6.600;2023-02-03T20:10:39;103073.75;;;6.75;84.90
51986;BME280;38002;53.296;6.600;2023-02-03T20:15:40;103102.53;;;6.76;84.70
51986;BME280;38002;53.296;6.600;2023-02-03T20:20:40;103115.19;;;6.75;85.27
51986;BME280;38002;53.296;6.600;2023-02-03T20:25:41;103120.66;;;6.74;84.83
51986;BME280;38002;53.296;6.600;2023-02-03T20:30:42;103109.94;;;6.72;84.91
51986;BME280;38002;53.296;6.600;2023-02-03T20:35:42;103119.00;;;6.71;84.90
51986;BME280;38002;53.296;6.600;2023-02-03T20:40:43;103127.13;;;6.71;84.66
51986;BME280;38002;53.296;6.600;2023-02-03T20:45:45;103134.34;;;6.71;84.99
51986;BME280;38002;53.296;6.600;2023-02-03T20:50:46;103140.63;;;6.71;85.15
51986;BME280;38002;53.296;6.600;2023-02-03T20:55:48;103152.22;;;6.73;85.34
51986;BME280;38002;53.296;6.600;2023-02-03T21:00:50;103160.25;;;6.75;85.34
51986;BME280;38002;53.296;6.600;2023-02-03T21:05:50;103167.44;;;6.76;85.02
51986;BME280;38002;53.296;6.600;2023-02-03T21:10:51;103158.38;;;6.77;85.16
51986;BME280;38002;53.296;6.600;2023-02-03T21:15:55;103151.03;;;6.79;84.81
51986;BME280;38002;53.296;6.600;2023-02-03T21:20:59;103160.84;;;6.81;85.32
51986;BME280;38002;53.296;6.600;2023-02-03T21:26:00;103153.50;;;6.83;85.45
51986;BME280;38002;53.296;6.600;2023-02-03T21:31:01;103165.19;;;6.84;85.57
51986;BME280;38002;53.296;6.600;2023-02-03T21:36:01;103169.66;;;6.85;85.83
51986;BME280;38002;53.296;6.600;2023-02-03T21:41:07;103174.19;;;6.84;85.56
51986;BME280;38002;53.296;6.600;2023-02-03T21:46:31;103180.53;;;6.83;85.74
51986;BME280;38002;53.296;6.600;2023-02-03T21:51:34;103186.00;;;6.82;85.57
51986;BME280;38002;53.296;6.600;2023-02-03T21:56:39;103190.66;;;6.80;86.02
51986;BME280;38002;53.296;6.600;2023-02-03T22:01:40;103203.47;;;6.76;86.54
51986;BME280;38002;53.296;6.600;2023-02-03T22:06:48;103204.41;;;6.75;86.29
51986;BME280;38002;53.296;6.600;2023-02-03T22:11:50;103196.53;;;6.71;86.30
51986;BME280;38002;53.296;6.600;2023-02-03T22:16:51;103209.22;;;6.69;86.42
51986;BME280;38002;53.296;6.600;2023-02-03T22:21:51;103216.75;;;6.64;86.32
51986;BME280;38002;53.296;6.600;2023-02-03T22:26:52;103224.97;;;6.61;86.10
51986;BME280;38002;53.296;6.600;2023-02-03T22:31:54;103233.25;;;6.58;85.84
51986;BME280;38002;53.296;6.600;2023-02-03T22:36:54;103236.91;;;6.57;86.67
51986;BME280;38002;53.296;6.600;2023-02-03T22:41:54;103233.25;;;6.58;86.50
51986;BME280;38002;53.296;6.600;2023-02-03T22:46:55;103242.25;;;6.58;86.28
51986;BME280;38002;53.296;6.600;2023-02-03T22:51:55;103249.41;;;6.59;85.97
51986;BME280;38002;53.296;6.600;2023-02-03T22:56:56;103246.72;;;6.59;86.59
51986;BME280;38002;53.296;6.600;2023-02-03T23:01:56;103246.78;;;6.58;86.49
51986;BME280;38002;53.296;6.600;2023-02-03T23:06:57;103261.22;;;6.57;87.06
51986;BME280;38002;53.296;6.600;2023-02-03T23:11:57;103275.63;;;6.57;86.95
51986;BME280;38002;53.296;6.600;2023-02-03T23:16:58;103272.03;;;6.57;87.17
51986;BME280;38002;53.296;6.600;2023-02-03T23:21:58;103280.25;;;6.55;87.08
51986;BME280;38002;53.296;6.600;2023-02-03T23:26:59;103287.38;;;6.56;86.93
51986;BME280;38002;53.296;6.600;2023-02-03T23:31:59;103292.66;;;6.59;87.23
51986;BME280;38002;53.296;6.600;2023-02-03T23:37:01;103301.56;;;6.61;86.65
51986;BME280;38002;53.296;6.600;2023-02-03T23:42:01;103305.94;;;6.64;86.99
51986;BME280;38002;53.296;6.600;2023-02-03T23:47:02;103302.19;;;6.66;87.73
51986;BME280;38002;53.296;6.600;2023-02-03T23:52:03;103310.25;;;6.68;87.31
51986;BME280;38002;53.296;6.600;2023-02-03T23:57:03;103319.13;;;6.70;87.28
